Time;durP1;ratioP1;P1;durP2;ratioP2;P2;SDS_P1;SDS_P2;PMS_P1;PMS_P2;Temp;Humidity;BMP_temperature;BMP_pressure;BME280_temperature;BME280_humidity;BME280_pressure;Samples;Min_cycle;Max_cycle;Signal;HPM_P1;HPM_P2
2021/12/01 00:01:06;;;;;;;5.22;1.50;;;12.10;78.50;;;;;;5027574;28;20021;-73
2021/12/01 00:03:32;;;;;;;8.65;2.08;;;12.20;78.70;;;;;;5026704;28;20029;-73
2021/12/01 00:05:58;;;;;;;5.78;1.20;;;12.20;78.70;;;;;;5027681;28;20026;-74
2021/12/01 00:08:24;;;;;;;5.45;2.05;;;12.10;78.60;;;;;;5024394;28;20040;-74
2021/12/01 00:10:50;;;;;;;5.50;1.42;;;12.20;78.70;;;;;;4991024;28;20452;-73
2021/12/01 00:13:19;;;;;;;6.93;2.08;;;12.20;78.70;;;;;;5011781;28;20021;-73
2021/12/01 00:15:46;;;;;;;6.38;1.27;;;12.20;78.80;;;;;;5009295;28;20124;-72
2021/12/01 00:18:12;;;;;;;4.63;1.20;;;12.20;78.70;;;;;;5026349;28;20493;-73
2021/12/01 00:20:39;;;;;;;7.60;1.60;;;12.10;78.50;;;;;;5026376;28;20037;-73
2021/12/01 00:23:05;;;;;;;7.53;1.73;;;12.20;78.80;;;;;;5008421;28;20413;-73
2021/12/01 00:25:35;;;;;;;3.65;1.30;;;12.10;78.60;;;;;;5025923;28;20060;-73
2021/12/01 00:28:01;;;;;;;5.78;2.53;;;12.10;78.60;;;;;;5026233;28;20378;-74
2021/12/01 00:30:28;;;;;;;9.48;1.60;;;12.20;78.80;;;;;;5025995;28;20030;-74
2021/12/01 00:32:54;;;;;;;5.18;1.27;;;12.10;78.60;;;;;;5009051;28;20447;-73
2021/12/01 00:35:22;;;;;;;6.53;1.75;;;12.20;78.80;;;;;;5009675;28;20046;-72
2021/12/01 00:37:48;;;;;;;5.70;1.35;;;12.10;78.60;;;;;;5006729;28;20449;-73
2021/12/01 00:40:15;;;;;;;4.15;1.25;;;12.10;78.60;;;;;;4990294;28;20428;-72
2021/12/01 00:42:42;;;;;;;5.82;1.00;;;12.10;78.60;;;;;;5026107;28;20026;-73
2021/12/01 00:45:17;;;;;;;6.60;1.70;;;12.10;78.60;;;;;;5026109;28;20026;-73
2021/12/01 00:47:46;;;;;;;6.93;1.85;;;12.10;78.60;;;;;;5009152;28;20037;-73
2021/12/01 00:50:15;;;;;;;3.95;1.30;;;12.10;78.50;;;;;;5025356;28;20072;-73
2021/12/01 00:52:41;;;;;;;4.50;1.33;;;12.10;79.10;;;;;;5026071;28;20059;-73
2021/12/01 00:55:08;;;;;;;10.50;3.80;;;12.10;78.60;;;;;;5025254;28;20025;-73
2021/12/01 00:57:35;;;;;;;4.75;1.38;;;12.10;78.50;;;;;;5010959;28;20464;-73
2021/12/01 01:00:03;;;;;;;5.53;1.15;;;12.10;78.60;;;;;;5012213;28;20044;-72
2021/12/01 01:02:29;;;;;;;3.90;1.38;;;12.10;78.60;;;;;;5030227;28;20489;-74
2021/12/01 01:04:55;;;;;;;5.45;1.92;;;12.10;78.60;;;;;;5011963;28;20033;-73
2021/12/01 01:07:21;;;;;;;5.82;1.10;;;12.10;78.60;;;;;;5031799;28;20034;-72
2021/12/01 01:09:48;;;;;;;6.20;1.35;;;12.10;78.60;;;;;;5030849;28;20401;-73
2021/12/01 01:17:49;;;;;;;8.02;2.08;;;12.00;78.40;;;;;;5028925;28;20037;-73
2021/12/01 01:20:16;;;;;;;9.75;1.70;;;12.10;78.60;;;;;;5028186;28;20116;-72
2021/12/01 01:22:42;;;;;;;6.35;2.42;;;12.00;78.40;;;;;;5010922;28;20156;-72
2021/12/01 01:25:09;;;;;;;5.18;1.80;;;12.00;78.40;;;;;;5028315;28;20180;-73
2021/12/01 01:27:35;;;;;;;5.88;1.58;;;12.00;78.40;;;;;;5028324;28;20029;-72
2021/12/01 01:30:04;;;;;;;4.75;1.88;;;12.10;78.60;;;;;;5028181;28;20370;-73
2021/12/01 01:32:32;;;;;;;4.55;1.42;;;12.00;78.40;;;;;;5011066;28;20485;-73
2021/12/01 01:34:58;;;;;;;6.88;1.92;;;12.00;78.40;;;;;;5014452;28;20205;-73
2021/12/01 01:37:24;;;;;;;8.05;1.70;;;12.00;78.40;;;;;;4991400;28;20128;-73
2021/12/01 01:39:50;;;;;;;5.00;1.65;;;12.00;78.40;;;;;;5023214;28;20034;-73
2021/12/01 01:42:17;;;;;;;7.20;1.85;;;12.00;78.50;;;;;;5028580;28;20465;-73
2021/12/01 01:44:45;;;;;;;6.60;1.70;;;11.90;78.30;;;;;;5028073;28;20421;-72
2021/12/01 01:47:11;;;;;;;9.43;2.28;;;11.90;78.30;;;;;;5028503;28;20103;-72
2021/12/01 01:49:52;;;;;;;6.82;1.48;;;11.90;78.30;;;;;;5028655;28;20037;-72
2021/12/01 01:52:17;;;;;;;7.90;2.20;;;11.90;78.30;;;;;;5027921;28;20120;-72
2021/12/01 01:54:43;;;;;;;7.32;2.08;;;11.90;78.30;;;;;;5010913;28;20524;-72
2021/12/01 01:57:10;;;;;;;10.57;2.05;;;11.90;78.30;;;;;;5028364;28;20041;-72
2021/12/01 01:59:36;;;;;;;7.00;2.15;;;11.90;78.40;;;;;;5027826;28;20036;-72
2021/12/01 02:02:03;;;;;;;4.50;2.35;;;11.90;78.40;;;;;;5010392;28;20025;-72
2021/12/01 02:04:33;;;;;;;4.75;1.73;;;11.90;78.40;;;;;;5028010;28;20025;-72
2021/12/01 02:07:02;;;;;;;6.18;1.35;;;11.80;78.30;;;;;;5010529;28;20034;-72
2021/12/01 02:09:28;;;;;;;5.55;1.50;;;11.80;78.30;;;;;;5027746;28;20095;-72
2021/12/01 02:11:58;;;;;;;5.63;1.63;;;11.80;78.30;;;;;;5010215;28;20140;-72
2021/12/01 02:14:25;;;;;;;7.25;1.67;;;11.80;78.30;;;;;;5027943;28;20037;-72
2021/12/01 02:16:51;;;;;;;5.03;1.23;;;11.80;78.40;;;;;;5028950;28;20806;-72
2021/12/01 02:19:17;;;;;;;6.68;1.73;;;11.80;78.40;;;;;;5010404;28;20115;-73
2021/12/01 02:21:43;;;;;;;3.47;1.38;;;11.80;78.40;;;;;;5027492;28;20060;-73
2021/12/01 02:24:13;;;;;;;5.97;1.58;;;11.80;78.40;;;;;;5027999;28;20026;-72
2021/12/01 02:26:43;;;;;;;4.28;1.10;;;11.80;78.40;;;;;;5010847;28;20091;-77
2021/12/01 02:29:14;;;;;;;4.47;1.40;;;11.80;78.40;;;;;;5010452;28;20060;-73
2021/12/01 02:31:41;;;;;;;4.78;1.98;;;11.80;78.40;;;;;;5015832;28;20091;-73
2021/12/01 02:34:17;;;;;;;7.07;1.67;;;11.80;78.30;;;;;;5010252;28;20037;-73
2021/12/01 02:36:49;;;;;;;5.95;1.55;;;11.80;78.30;;;;;;5010753;28;20114;-74
2021/12/01 02:39:16;;;;;;;4.03;1.45;;;11.80;78.30;;;;;;5008529;28;20031;-77
2021/12/01 02:41:44;;;;;;;4.32;1.48;;;11.80;78.90;;;;;;5028499;28;20065;-74
2021/12/01 02:44:12;;;;;;;8.57;1.50;;;11.70;78.20;;;;;;5028632;28;20500;-74
2021/12/01 02:46:39;;;;;;;9.10;2.00;;;11.70;78.20;;;;;;5016561;28;20045;-74
2021/12/01 02:49:06;;;;;;;3.88;1.15;;;11.70;78.20;;;;;;5014152;28;20112;-74
2021/12/01 02:51:35;;;;;;;5.43;1.38;;;11.70;78.20;;;;;;5014237;28;20434;-73
2021/12/01 02:54:01;;;;;;;3.78;1.10;;;11.70;78.20;;;;;;5012070;28;20037;-74
2021/12/01 02:56:31;;;;;;;3.70;1.45;;;11.70;78.30;;;;;;5023351;28;20025;-75
2021/12/01 02:58:59;;;;;;;6.22;1.58;;;11.70;78.30;;;;;;5032158;28;20033;-74
2021/12/01 03:01:25;;;;;;;4.28;1.58;;;11.70;78.30;;;;;;5013595;28;20021;-75
2021/12/01 03:03:51;;;;;;;5.82;2.60;;;11.70;78.30;;;;;;5031999;28;20052;-72
2021/12/01 03:06:20;;;;;;;6.38;2.00;;;11.70;78.30;;;;;;5032147;28;20026;-72
2021/12/01 03:08:47;;;;;;;4.15;1.40;;;11.60;78.20;;;;;;5020108;28;20113;-72
2021/12/01 03:11:14;;;;;;;4.18;2.20;;;11.60;78.20;;;;;;4994648;28;20041;-72
2021/12/01 03:13:41;;;;;;;3.53;1.10;;;11.60;78.20;;;;;;4995527;28;20022;-73
2021/12/01 03:16:06;;;;;;;2.20;1.25;;;11.70;78.30;;;;;;5012025;28;20030;-79
2021/12/01 03:18:33;;;;;;;3.95;1.65;;;11.60;78.10;;;;;;5010628;28;20133;-73
2021/12/01 03:20:59;;;;;;;2.65;1.45;;;11.60;78.10;;;;;;5010768;28;20061;-73
2021/12/01 03:23:26;;;;;;;3.03;1.65;;;11.60;78.10;;;;;;5011667;28;20029;-73
2021/12/01 03:25:53;;;;;;;2.80;1.10;;;11.60;78.10;;;;;;5012226;28;20049;-73
2021/12/01 03:28:20;;;;;;;3.63;1.35;;;11.60;78.10;;;;;;5012136;28;20041;-74
2021/12/01 03:30:47;;;;;;;3.05;1.38;;;11.60;78.10;;;;;;5011353;28;20525;-73
2021/12/01 03:33:16;;;;;;;3.22;1.00;;;11.60;78.10;;;;;;4977765;28;20033;-72
2021/12/01 03:35:44;;;;;;;5.97;1.25;;;11.60;78.00;;;;;;5011532;28;20072;-72
2021/12/01 03:38:11;;;;;;;2.78;1.05;;;11.60;78.00;;;;;;5011719;28;20508;-73
2021/12/01 03:40:37;;;;;;;2.70;1.02;;;11.60;78.00;;;;;;5009946;28;20026;-72
2021/12/01 03:43:04;;;;;;;1.50;0.90;;;11.60;78.00;;;;;;5012239;28;20481;-74
2021/12/01 03:45:30;;;;;;;3.13;0.93;;;11.60;78.00;;;;;;5024879;28;20100;-73
2021/12/01 03:47:56;;;;;;;3.35;0.85;;;11.50;77.80;;;;;;5031321;28;20547;-74
2021/12/01 03:50:22;;;;;;;3.05;1.13;;;11.50;77.80;;;;;;4998132;28;20401;-72
2021/12/01 03:52:49;;;;;;;2.03;1.13;;;11.50;77.80;;;;;;5012906;28;20400;-73
2021/12/01 03:55:15;;;;;;;1.85;0.95;;;11.50;77.80;;;;;;5031430;28;20032;-73
2021/12/01 03:57:41;;;;;;;2.25;0.98;;;11.50;77.80;;;;;;5013385;28;20033;-73
2021/12/01 04:00:11;;;;;;;2.80;1.17;;;11.50;77.80;;;;;;5030889;28;20060;-74
2021/12/01 04:02:41;;;;;;;4.43;1.08;;;11.50;77.80;;;;;;5031400;28;20416;-73
2021/12/01 04:05:09;;;;;;;3.50;0.98;;;11.50;77.80;;;;;;5013278;28;20172;-73
2021/12/01 04:07:35;;;;;;;2.38;0.93;;;11.50;77.80;;;;;;5031170;28;20044;-72
2021/12/01 04:10:03;;;;;;;2.20;0.70;;;11.50;77.90;;;;;;5031029;28;20030;-73
2021/12/01 04:12:29;;;;;;;3.90;0.70;;;11.50;77.80;;;;;;5030682;28;20048;-74
2021/12/01 04:14:55;;;;;;;2.80;0.88;;;11.50;77.80;;;;;;5013583;28;20473;-73
2021/12/01 04:17:21;;;;;;;3.33;1.00;;;11.50;77.70;;;;;;5030544;28;20033;-73
2021/12/01 04:19:47;;;;;;;2.70;0.90;;;11.50;77.70;;;;;;5031174;28;20030;-73
2021/12/01 04:22:13;;;;;;;2.35;1.00;;;11.50;77.70;;;;;;5030989;28;20022;-73
2021/12/01 04:24:39;;;;;;;2.65;0.93;;;11.50;77.60;;;;;;5030517;28;20076;-72
2021/12/01 04:27:05;;;;;;;2.17;0.70;;;11.50;77.60;;;;;;5030737;28;20034;-77
2021/12/01 04:29:32;;;;;;;2.55;0.65;;;11.50;77.60;;;;;;5031499;28;20034;-73
2021/12/01 04:31:58;;;;;;;2.88;1.13;;;11.50;77.60;;;;;;5032518;28;20032;-73
2021/12/01 04:34:23;;;;;;;2.28;0.90;;;11.50;77.50;;;;;;5034876;28;20442;-72
2021/12/01 04:36:50;;;;;;;3.33;0.80;;;11.50;77.50;;;;;;5034577;28;20026;-76
2021/12/01 04:39:18;;;;;;;1.40;0.60;;;11.40;77.30;;;;;;5016855;28;20455;-72
2021/12/01 04:41:53;;;;;;;4.00;1.33;;;11.50;77.50;;;;;;5034969;28;20125;-72
2021/12/01 04:44:21;;;;;;;1.73;0.63;;;11.40;77.20;;;;;;5030888;28;20037;-73
2021/12/01 04:46:48;;;;;;;1.63;0.63;;;11.40;77.30;;;;;;5014462;28;20498;-72
2021/12/01 04:49:20;;;;;;;1.05;0.63;;;11.40;77.20;;;;;;5014657;28;20076;-73
2021/12/01 04:51:49;;;;;;;1.98;0.90;;;11.40;77.20;;;;;;5014286;28;20492;-73
2021/12/01 04:54:15;;;;;;;2.08;0.60;;;11.40;77.20;;;;;;5014303;28;20094;-72
2021/12/01 04:56:43;;;;;;;1.13;0.60;;;11.30;77.00;;;;;;4997016;28;20041;-74
2021/12/01 04:59:09;;;;;;;4.22;1.02;;;11.30;77.00;;;;;;5015592;28;20041;-83
2021/12/01 05:01:36;;;;;;;1.60;0.68;;;11.30;77.00;;;;;;5014768;28;20030;-79
2021/12/01 05:04:04;;;;;;;2.00;0.85;;;11.30;77.00;;;;;;5015150;28;20624;-72
2021/12/01 05:06:31;;;;;;;1.55;0.60;;;11.30;77.00;;;;;;5013907;28;20026;-73
2021/12/01 05:08:56;;;;;;;1.10;0.55;;;11.30;77.00;;;;;;4997182;28;20026;-73
2021/12/01 05:11:23;;;;;;;2.63;0.60;;;11.30;77.00;;;;;;4996921;28;20033;-71
2021/12/01 05:13:48;;;;;;;3.88;0.70;;;11.30;77.00;;;;;;5015411;28;20038;-76
2021/12/01 05:16:15;;;;;;;1.88;0.55;;;11.20;76.80;;;;;;5019289;28;20037;-72
2021/12/01 05:18:41;;;;;;;1.85;0.73;;;11.20;76.90;;;;;;5018859;28;20511;-73
2021/12/01 05:21:07;;;;;;;2.00;0.60;;;11.20;76.80;;;;;;5014453;28;20117;-73
2021/12/01 05:23:34;;;;;;;1.58;0.50;;;11.20;76.80;;;;;;5014887;28;20037;-79
2021/12/01 05:25:59;;;;;;;3.22;0.57;;;11.20;76.80;;;;;;5004937;28;20385;-77
2021/12/01 05:28:25;;;;;;;2.10;0.70;;;11.20;76.80;;;;;;5014227;28;20030;-73
2021/12/01 05:30:52;;;;;;;1.67;0.40;;;11.20;76.80;;;;;;5015292;28;20072;-73
2021/12/01 05:33:18;;;;;;;2.13;0.60;;;11.20;76.80;;;;;;5007643;28;20025;-80
2021/12/01 05:35:46;;;;;;;1.83;0.70;;;11.20;76.80;;;;;;5002772;28;20034;-74
2021/12/01 05:38:13;;;;;;;4.05;1.58;;;11.20;76.80;;;;;;4996002;28;20589;-74
2021/12/01 05:40:39;;;;;;;1.60;0.60;;;11.10;76.60;;;;;;5022415;28;20113;-72
2021/12/01 05:43:05;;;;;;;1.17;0.50;;;11.10;76.60;;;;;;5032513;28;20080;-73
2021/12/01 05:45:31;;;;;;;1.27;0.40;;;11.20;76.80;;;;;;5025814;28;20082;-72
2021/12/01 05:47:57;;;;;;;2.67;0.43;;;11.20;76.80;;;;;;5002905;28;20034;-73
2021/12/01 05:50:24;;;;;;;1.55;0.50;;;11.10;76.60;;;;;;5006594;28;20038;-76
2021/12/01 05:52:50;;;;;;;2.10;0.50;;;11.20;76.70;;;;;;5008899;28;20110;-73
2021/12/01 05:55:16;;;;;;;1.65;0.50;;;11.10;76.50;;;;;;5009834;28;20034;-77
2021/12/01 05:57:42;;;;;;;1.92;0.60;;;11.10;76.50;;;;;;5009499;28;20140;-73
2021/12/01 06:00:11;;;;;;;1.30;0.60;;;11.10;76.50;;;;;;4991971;28;20117;-77
2021/12/01 06:02:37;;;;;;;1.30;0.38;;;11.10;76.50;;;;;;4988972;28;20088;-75
2021/12/01 06:05:05;;;;;;;1.38;0.68;;;11.10;76.50;;;;;;5011045;28;20199;-85
2021/12/01 06:07:31;;;;;;;1.35;0.73;;;11.10;76.50;;;;;;5012876;28;20026;-91
2021/12/01 06:10:01;;;;;;;1.40;0.40;;;11.10;76.50;;;;;;5012725;28;20030;-86
2021/12/01 06:12:29;;;;;;;3.30;0.60;;;11.10;76.50;;;;;;4997053;28;20034;-76
2021/12/01 06:14:56;;;;;;;0.70;0.55;;;11.10;76.50;;;;;;5030714;28;20029;-80
2021/12/01 06:17:22;;;;;;;1.65;0.40;;;11.10;76.50;;;;;;5034760;28;20035;-73
2021/12/01 06:19:48;;;;;;;2.50;0.40;;;11.10;76.50;;;;;;5010692;28;20048;-74
2021/12/01 06:22:14;;;;;;;0.60;0.50;;;11.00;76.30;;;;;;5005229;28;20185;-72
2021/12/01 06:24:40;;;;;;;2.30;0.52;;;11.00;76.30;;;;;;5004854;28;20033;-74
2021/12/01 06:27:06;;;;;;;0.93;0.47;;;11.00;76.30;;;;;;5010372;28;20386;-75
2021/12/01 06:29:33;;;;;;;2.08;0.65;;;11.00;76.30;;;;;;4990972;28;20452;-79
2021/12/01 06:31:59;;;;;;;2.25;0.50;;;11.00;76.30;;;;;;4992718;28;20025;-74
2021/12/01 06:34:25;;;;;;;1.45;0.20;;;11.00;76.30;;;;;;5014596;28;20362;-88
2021/12/01 06:36:51;;;;;;;1.83;0.40;;;10.90;76.10;;;;;;4991565;28;20057;-74
2021/12/01 06:39:17;;;;;;;1.00;0.40;;;11.00;76.40;;;;;;5006154;28;20623;-75
2021/12/01 06:41:43;;;;;;;0.65;0.40;;;10.90;76.20;;;;;;5026951;28;20033;-78
2021/12/01 06:44:10;;;;;;;0.75;0.60;;;10.90;76.20;;;;;;5011038;28;20036;-78
2021/12/01 06:46:36;;;;;;;1.83;0.50;;;11.00;76.40;;;;;;5008318;28;20046;-83
2021/12/01 06:49:02;;;;;;;0.20;0.17;;;10.90;76.20;;;;;;5005940;28;20044;-73
2021/12/01 06:51:28;;;;;;;1.48;0.60;;;10.90;76.20;;;;;;5007027;28;20065;-72
2021/12/01 06:53:54;;;;;;;0.73;0.32;;;10.90;76.20;;;;;;5016215;28;20126;-73
2021/12/01 06:56:21;;;;;;;2.05;0.52;;;10.90;76.20;;;;;;5026962;28;20025;-73
2021/12/01 06:58:47;;;;;;;0.35;0.28;;;10.90;76.40;;;;;;5025624;28;20045;-73
2021/12/01 07:01:14;;;;;;;2.60;0.85;;;10.90;76.50;;;;;;5009257;28;20504;-73
2021/12/01 07:03:40;;;;;;;1.13;0.75;;;10.90;76.60;;;;;;5026481;28;20044;-73
2021/12/01 07:06:06;;;;;;;1.55;0.30;;;11.00;76.70;;;;;;5025773;28;20026;-74
2021/12/01 07:08:32;;;;;;;3.03;0.40;;;10.90;76.60;;;;;;4977213;28;20061;-78
2021/12/01 07:10:58;;;;;;;2.22;0.52;;;10.90;76.60;;;;;;5017950;28;20022;-74
2021/12/01 07:13:24;;;;;;;0.80;0.32;;;10.90;76.60;;;;;;5012133;28;20041;-82
2021/12/01 07:15:50;;;;;;;3.03;0.50;;;10.90;76.60;;;;;;5010290;28;20571;-82
2021/12/01 07:18:16;;;;;;;1.80;0.50;;;10.90;76.60;;;;;;5001813;28;20120;-74
2021/12/01 07:20:45;;;;;;;1.27;0.40;;;10.90;76.60;;;;;;5018235;28;20029;-83
2021/12/01 07:23:12;;;;;;;2.10;0.25;;;10.90;76.60;;;;;;5017316;28;20042;-74
2021/12/01 07:25:39;;;;;;;2.63;0.28;;;10.90;76.50;;;;;;5009158;28;20112;-81
2021/12/01 07:28:05;;;;;;;2.38;0.40;;;10.90;76.50;;;;;;4991451;28;20037;-81
2021/12/01 07:30:32;;;;;;;1.83;0.60;;;10.90;76.50;;;;;;5004827;28;20393;-73
2021/12/01 07:32:58;;;;;;;1.88;0.77;;;10.80;76.40;;;;;;5007376;28;20068;-85
2021/12/01 07:35:24;;;;;;;1.30;0.52;;;10.80;76.40;;;;;;5027335;28;20103;-82
2021/12/01 07:37:50;;;;;;;3.38;0.70;;;10.80;76.40;;;;;;5027085;28;20045;-85
2021/12/01 07:40:17;;;;;;;0.95;0.50;;;10.80;76.40;;;;;;5027418;28;20030;-79
2021/12/01 07:42:43;;;;;;;2.00;0.55;;;10.80;76.40;;;;;;5025155;28;20029;-75
2021/12/01 07:45:09;;;;;;;3.70;0.63;;;10.70;76.20;;;;;;5024486;28;20025;-77
2021/12/01 07:47:35;;;;;;;1.98;0.70;;;10.70;76.20;;;;;;5007167;28;20046;-85
2021/12/01 07:50:02;;;;;;;3.00;0.77;;;10.70;76.20;;;;;;5025089;28;20249;-77
2021/12/01 07:52:29;;;;;;;1.38;0.50;;;10.70;76.20;;;;;;5008286;28;20072;-74
2021/12/01 07:54:55;;;;;;;1.73;0.52;;;10.70;76.20;;;;;;5007314;28;20436;-74
2021/12/01 07:57:21;;;;;;;2.53;0.65;;;10.70;76.20;;;;;;5008029;28;20087;-75
2021/12/01 07:59:47;;;;;;;2.63;1.20;;;10.70;76.20;;;;;;5008755;28;20037;-79
2021/12/01 08:02:13;;;;;;;4.22;0.90;;;10.60;76.00;;;;;;5026307;28;20041;-76
2021/12/01 08:04:39;;;;;;;5.00;1.33;;;10.60;76.00;;;;;;5026544;28;20112;-81
2021/12/01 08:07:05;;;;;;;4.07;0.73;;;10.60;76.00;;;;;;5029901;28;20046;-86
2021/12/01 08:09:31;;;;;;;2.22;0.65;;;10.60;76.10;;;;;;5029880;28;20034;-75
2021/12/01 08:11:57;;;;;;;2.95;1.20;;;10.60;76.10;;;;;;5030175;28;20029;-82
2021/12/01 08:14:24;;;;;;;5.15;1.73;;;10.60;76.10;;;;;;5011066;28;20118;-75
2021/12/01 08:16:51;;;;;;;3.88;0.85;;;10.60;76.10;;;;;;5029633;28;20615;-73
2021/12/01 08:19:17;;;;;;;4.18;1.00;;;10.60;76.10;;;;;;5028745;28;20126;-77
2021/12/01 08:21:47;;;;;;;3.60;1.00;;;10.60;76.10;;;;;;5030206;28;20030;-76
2021/12/01 08:24:14;;;;;;;3.63;0.80;;;10.60;76.00;;;;;;5011392;28;20029;-84
2021/12/01 08:26:42;;;;;;;6.75;1.00;;;10.60;76.00;;;;;;5011913;28;20036;-79
2021/12/01 08:29:09;;;;;;;5.10;0.80;;;10.60;76.00;;;;;;5030744;28;20544;-89
2021/12/01 08:31:35;;;;;;;5.05;1.00;;;10.60;76.00;;;;;;5030358;28;20029;-87
2021/12/01 08:34:01;;;;;;;5.20;1.10;;;10.50;75.80;;;;;;5031258;28;20041;-83
2021/12/01 08:36:27;;;;;;;3.83;0.93;;;10.60;76.00;;;;;;5032296;28;20567;-73
2021/12/01 08:38:53;;;;;;;4.57;1.25;;;10.60;76.00;;;;;;5043679;28;20072;-79
2021/12/01 08:41:19;;;;;;;5.13;1.38;;;10.50;75.80;;;;;;5040746;28;20025;-82
2021/12/01 08:43:46;;;;;;;5.85;0.95;;;10.60;75.90;;;;;;5021309;28;20271;-88
2021/12/01 08:46:13;;;;;;;6.38;1.27;;;10.60;75.90;;;;;;5016598;28;20077;-76
2021/12/01 08:48:39;;;;;;;4.18;0.95;;;10.60;75.90;;;;;;5012558;28;20037;-73
2021/12/01 08:51:06;;;;;;;2.65;0.80;;;10.60;75.90;;;;;;5028535;28;20041;-73
2021/12/01 08:53:35;;;;;;;3.20;0.80;;;10.70;76.00;;;;;;5004339;28;20026;-77
2021/12/01 08:56:01;;;;;;;5.15;1.42;;;10.70;76.00;;;;;;5011400;28;20095;-83
2021/12/01 08:58:28;;;;;;;4.57;0.82;;;10.70;75.90;;;;;;5009023;28;20041;-78
2021/12/01 09:00:55;;;;;;;5.90;1.55;;;10.70;75.90;;;;;;5028716;28;20133;-78
2021/12/01 09:03:23;;;;;;;3.90;1.27;;;10.70;75.80;;;;;;5030532;28;20029;-73
2021/12/01 09:05:50;;;;;;;8.25;1.60;;;10.70;75.80;;;;;;5034407;28;20041;-78
2021/12/01 09:08:19;;;;;;;5.80;1.40;;;10.80;75.90;;;;;;5037352;28;20505;-79
2021/12/01 09:10:45;;;;;;;6.70;2.42;;;10.80;75.90;;;;;;5031661;28;20041;-85
2021/12/01 09:13:12;;;;;;;5.70;1.35;;;10.70;75.60;;;;;;5032216;28;20049;-83
2021/12/01 09:15:38;;;;;;;1.95;1.15;;;10.70;75.50;;;;;;5032812;28;20025;-91
2021/12/01 09:18:05;;;;;;;5.55;1.27;;;10.80;75.70;;;;;;5013998;28;20117;-87
2021/12/01 09:20:31;;;;;;;5.93;1.10;;;10.70;75.50;;;;;;5032238;28;20025;-75
2021/12/01 09:22:57;;;;;;;4.07;0.85;;;10.70;75.50;;;;;;5014037;28;20044;-76
2021/12/01 09:25:23;;;;;;;7.03;2.03;;;10.70;75.50;;;;;;5032775;28;20088;-91
2021/12/01 09:27:50;;;;;;;6.43;1.15;;;10.70;75.40;;;;;;5031183;28;20049;-83
2021/12/01 09:30:17;;;;;;;3.92;1.08;;;10.70;75.40;;;;;;5012054;28;20124;-82
2021/12/01 09:32:44;;;;;;;4.07;1.05;;;10.70;75.40;;;;;;5030364;28;20083;-87
2021/12/01 09:35:12;;;;;;;5.35;1.70;;;10.70;75.40;;;;;;5029479;28;20048;-73
2021/12/01 09:37:38;;;;;;;5.60;1.30;;;10.80;75.50;;;;;;5030043;28;20503;-74
2021/12/01 09:40:12;;;;;;;6.43;1.23;;;10.70;75.30;;;;;;4985700;28;20517;-74
2021/12/01 09:42:44;;;;;;;4.22;1.33;;;10.80;75.50;;;;;;4989341;28;20030;-79
2021/12/01 09:45:11;;;;;;;7.40;1.50;;;10.80;75.50;;;;;;5028123;28;20538;-76
2021/12/01 09:47:37;;;;;;;7.13;1.58;;;10.80;75.40;;;;;;5028783;28;20049;-74
2021/12/01 09:50:05;;;;;;;7.60;1.58;;;10.80;75.40;;;;;;5029327;28;20095;-73
2021/12/01 09:52:31;;;;;;;5.13;1.35;;;10.80;75.40;;;;;;5029337;28;20030;-85
2021/12/01 09:54:57;;;;;;;6.47;1.27;;;10.80;75.30;;;;;;5010599;28;20184;-85
2021/12/01 09:57:26;;;;;;;6.50;1.40;;;10.90;75.40;;;;;;5028199;28;20117;-82
2021/12/01 09:59:52;;;;;;;6.53;1.70;;;10.90;75.40;;;;;;5011163;28;20099;-81
2021/12/01 10:02:18;;;;;;;6.47;1.80;;;11.00;75.50;;;;;;4994032;28;20026;-78
2021/12/01 10:04:46;;;;;;;5.05;1.38;;;11.00;75.30;;;;;;5011652;28;20043;-73
2021/12/01 10:07:18;;;;;;;6.03;1.58;;;11.00;75.30;;;;;;5028738;28;20452;-78
2021/12/01 10:09:48;;;;;;;5.23;1.93;;;11.00;75.20;;;;;;5033503;28;20045;-78
2021/12/01 10:12:15;;;;;;;6.30;1.55;;;11.00;75.20;;;;;;5012210;28;20029;-76
2021/12/01 10:14:49;;;;;;;3.40;1.35;;;11.00;75.10;;;;;;5030220;28;20060;-77
2021/12/01 10:17:16;;;;;;;5.57;1.40;;;11.10;75.20;;;;;;5011290;28;20444;-89
2021/12/01 10:19:42;;;;;;;6.55;1.88;;;11.10;75.20;;;;;;5011993;28;20030;-80
2021/12/01 10:22:10;;;;;;;4.25;1.10;;;11.20;75.30;;;;;;5008818;28;20072;-77
2021/12/01 10:24:39;;;;;;;5.38;1.92;;;11.20;75.30;;;;;;5023736;28;20036;-73
2021/12/01 10:27:12;;;;;;;4.80;2.70;;;11.20;75.20;;;;;;5011980;28;20538;-74
2021/12/01 10:29:49;;;;;;;5.07;1.40;;;11.30;75.30;;;;;;5010678;28;20106;-73
2021/12/01 10:32:19;;;;;;;6.63;2.13;;;11.30;75.20;;;;;;5029479;28;20064;-75
2021/12/01 10:34:57;;;;;;;4.68;1.40;;;11.30;75.10;;;;;;5028431;28;20029;-81
2021/12/01 10:37:33;;;;;;;7.53;2.67;;;11.40;75.30;;;;;;5015279;28;20029;-75
2021/12/01 10:40:10;;;;;;;4.90;1.40;;;11.40;75.10;;;;;;4976935;28;20462;-74
2021/12/01 10:42:52;;;;;;;9.40;2.88;;;11.50;75.30;;;;;;4972153;28;20026;-89
2021/12/01 10:45:21;;;;;;;5.70;1.30;;;11.50;75.10;;;;;;4972095;28;20034;-84
2021/12/01 10:47:48;;;;;;;4.10;1.25;;;11.60;75.20;;;;;;4993380;28;20026;-86
2021/12/01 10:50:18;;;;;;;4.50;1.33;;;11.60;75.10;;;;;;5027653;28;20045;-76
2021/12/01 10:52:55;;;;;;;4.50;1.90;;;11.60;74.90;;;;;;5027349;28;20113;-79
2021/12/01 10:55:26;;;;;;;5.55;1.17;;;11.70;75.00;;;;;;5026899;28;20088;-76
2021/12/01 10:58:05;;;;;;;6.32;1.15;;;11.70;74.90;;;;;;5008924;28;20037;-74
2021/12/01 11:00:39;;;;;;;4.72;1.63;;;11.70;74.90;;;;;;5026346;28;20323;-76
2021/12/01 11:03:07;;;;;;;5.70;1.50;;;11.70;74.90;;;;;;5029419;28;20408;-75
2021/12/01 11:05:36;;;;;;;5.03;1.58;;;11.70;74.90;;;;;;5028816;28;20096;-84
2021/12/01 11:08:29;;;;;;;7.32;1.80;;;11.70;74.90;;;;;;5028663;28;20036;-77
2021/12/01 11:11:03;;;;;;;6.30;1.33;;;11.70;74.80;;;;;;5011299;28;20038;-76
2021/12/01 11:13:29;;;;;;;6.95;2.72;;;11.80;74.90;;;;;;5033191;28;20684;-73
2021/12/01 11:16:03;;;;;;;4.80;1.33;;;11.80;74.80;;;;;;5028540;28;20037;-77
2021/12/01 11:18:32;;;;;;;5.07;1.20;;;11.80;74.70;;;;;;5011629;28;20037;-78
2021/12/01 11:21:21;;;;;;;4.40;1.23;;;11.80;74.70;;;;;;4990574;28;20066;-74
2021/12/01 11:23:51;;;;;;;4.40;1.60;;;11.80;74.70;;;;;;5005419;28;20520;-74
2021/12/01 11:26:20;;;;;;;6.20;1.25;;;11.80;74.70;;;;;;5027936;28;20044;-78
2021/12/01 11:28:51;;;;;;;3.53;1.00;;;11.80;74.70;;;;;;5006278;28;20066;-83
2021/12/01 11:31:24;;;;;;;8.43;1.90;;;11.90;74.80;;;;;;4988572;28;20040;-75
2021/12/01 11:33:56;;;;;;;3.40;1.23;;;11.90;74.80;;;;;;4997166;28;20025;-82
2021/12/01 11:36:25;;;;;;;7.45;1.55;;;11.90;74.80;;;;;;5008881;28;20485;-77
2021/12/01 11:38:57;;;;;;;4.18;1.52;;;11.90;74.70;;;;;;5009919;28;20037;-80
2021/12/01 11:41:23;;;;;;;3.35;1.27;;;11.90;74.70;;;;;;5025743;28;20034;-76
2021/12/01 11:43:51;;;;;;;4.53;1.30;;;11.90;74.70;;;;;;5009106;28;20025;-73
2021/12/01 11:46:17;;;;;;;7.55;2.13;;;11.90;74.70;;;;;;4991263;28;20121;-81
2021/12/01 11:48:47;;;;;;;5.05;1.95;;;11.90;74.90;;;;;;5015214;28;20038;-74
2021/12/01 11:51:16;;;;;;;4.78;1.55;;;11.90;75.30;;;;;;4992301;28;20061;-76
2021/12/01 11:53:48;;;;;;;3.92;1.20;;;12.00;75.20;;;;;;4995840;28;20120;-75
2021/12/01 11:56:29;;;;;;;6.25;1.40;;;12.00;75.10;;;;;;5026277;28;20115;-74
2021/12/01 11:59:00;;;;;;;5.70;2.00;;;12.10;75.20;;;;;;5027093;28;20112;-74
2021/12/01 12:01:27;;;;;;;6.82;1.77;;;12.10;75.10;;;;;;4983483;28;20027;-76
2021/12/01 12:04:01;;;;;;;3.70;2.03;;;12.20;75.30;;;;;;5015596;28;20112;-81
2021/12/01 12:06:44;;;;;;;4.43;1.40;;;12.10;75.00;;;;;;5026212;28;20032;-79
2021/12/01 12:09:12;;;;;;;5.88;2.08;;;12.20;75.10;;;;;;5027735;28;20030;-81
2021/12/01 12:11:52;;;;;;;4.82;1.33;;;12.20;75.00;;;;;;5027086;28;20117;-75
2021/12/01 12:14:24;;;;;;;3.42;1.40;;;12.20;74.90;;;;;;4995161;28;20049;-75
2021/12/01 12:17:12;;;;;;;6.65;1.65;;;12.30;75.10;;;;;;4991344;28;20092;-78
2021/12/01 12:20:24;;;;;;;4.82;1.20;;;12.30;75.50;;;;;;5008708;28;20060;-76
2021/12/01 12:22:49;;;;;;;3.70;0.90;;;12.30;74.90;;;;;;5008300;28;20069;-79
2021/12/01 12:25:42;;;;;;;3.05;1.15;;;12.30;74.90;;;;;;5004183;28;20084;-77
2021/12/01 12:28:33;;;;;;;4.57;1.15;;;12.30;74.90;;;;;;5005015;28;20071;-78
2021/12/01 12:31:18;;;;;;;3.45;1.27;;;12.20;74.70;;;;;;5017937;28;20576;-79
2021/12/01 12:33:56;;;;;;;3.78;1.40;;;12.30;74.90;;;;;;5012889;28;20029;-83
2021/12/01 12:36:47;;;;;;;3.25;1.00;;;12.30;74.90;;;;;;5008076;28;20037;-77
2021/12/01 12:39:17;;;;;;;4.85;1.55;;;12.30;74.80;;;;;;5007592;28;20045;-75
2021/12/01 12:42:09;;;;;;;5.93;1.00;;;12.30;74.70;;;;;;5007898;28;20401;-81
2021/12/01 12:44:46;;;;;;;2.35;0.80;;;12.30;74.50;;;;;;4988511;28;20049;-75
2021/12/01 12:47:26;;;;;;;4.57;1.50;;;12.30;74.50;;;;;;5025466;28;20132;-83
2021/12/01 12:50:10;;;;;;;3.58;1.40;;;12.40;74.60;;;;;;5025754;28;20116;-78
2021/12/01 12:52:38;;;;;;;4.43;1.10;;;12.30;74.40;;;;;;5026488;28;20076;-82
2021/12/01 12:55:10;;;;;;;4.35;1.25;;;12.40;74.50;;;;;;5011219;28;20087;-77
2021/12/01 12:58:06;;;;;;;2.40;0.70;;;12.40;74.50;;;;;;5028857;28;20049;-83
2021/12/01 13:00:33;;;;;;;4.05;1.00;;;12.40;74.50;;;;;;5011064;28;20559;-75